Time;durP1;ratioP1;P1;durP2;ratioP2;P2;SDS_P1;SDS_P2;PMS_P1;PMS_P2;Temp;Humidity;BMP_temperature;BMP_pressure;BME280_temperature;BME280_humidity;BME280_pressure;Samples;Min_cycle;Max_cycle;Signal;HPM_P1;HPM_P2
2021/05/20 00:01:36;;;;;;;8.73;7.80;;;8.20;99.90;;;;;;5082962;28;20203;-57
2021/05/20 00:04:05;;;;;;;11.87;8.10;;;8.20;99.90;;;;;;5063215;28;20210;-49
2021/05/20 00:06:31;;;;;;;9.73;7.80;;;8.20;99.90;;;;;;5082785;28;20217;-45
2021/05/20 00:08:57;;;;;;;8.53;6.87;;;8.10;99.90;;;;;;5071544;28;20200;-45
2021/05/20 00:11:23;;;;;;;8.30;7.50;;;8.20;99.90;;;;;;5076613;28;20206;-48
2021/05/20 00:13:49;;;;;;;9.27;7.73;;;8.10;99.90;;;;;;5076700;28;20284;-55
2021/05/20 00:16:15;;;;;;;8.83;8.03;;;8.10;99.90;;;;;;5081791;28;20267;-49
2021/05/20 00:18:41;;;;;;;22.40;15.07;;;8.10;99.90;;;;;;5067160;28;20598;-46
2021/05/20 00:21:08;;;;;;;11.63;8.83;;;8.00;99.90;;;;;;5075004;28;20346;-49
2021/05/20 00:23:34;;;;;;;9.23;7.47;;;8.00;99.90;;;;;;5082877;28;20804;-47
2021/05/20 00:26:01;;;;;;;8.00;6.83;;;8.00;99.90;;;;;;5066974;28;20354;-47
2021/05/20 00:28:27;;;;;;;8.33;7.13;;;8.00;99.90;;;;;;5081980;28;20246;-47
2021/05/20 00:30:53;;;;;;;7.73;6.90;;;7.90;99.90;;;;;;5079017;28;20202;-46
2021/05/20 00:33:19;;;;;;;7.17;6.27;;;7.90;99.90;;;;;;5082146;28;20194;-52
2021/05/20 00:35:45;;;;;;;8.43;7.27;;;7.90;99.90;;;;;;5062904;28;20252;-47
2021/05/20 00:38:12;;;;;;;7.03;6.30;;;7.80;99.90;;;;;;5080258;28;20213;-48
2021/05/20 00:40:39;;;;;;;10.17;5.90;;;7.80;99.90;;;;;;5068956;28;20677;-54
2021/05/20 00:43:05;;;;;;;7.63;6.83;;;7.70;99.90;;;;;;5073398;28;20186;-44
2021/05/20 00:45:31;;;;;;;7.40;6.70;;;7.70;99.90;;;;;;5082350;28;20229;-43
2021/05/20 00:47:57;;;;;;;7.20;5.83;;;7.70;99.90;;;;;;5078572;28;20178;-44
2021/05/20 00:50:23;;;;;;;7.93;6.13;;;7.70;99.90;;;;;;5068828;28;20202;-46
2021/05/20 00:52:50;;;;;;;8.03;6.03;;;7.70;99.90;;;;;;5073935;28;20691;-44
2021/05/20 00:55:19;;;;;;;7.83;5.97;;;7.70;99.90;;;;;;5075264;28;20218;-47
2021/05/20 00:57:46;;;;;;;10.73;7.17;;;7.70;99.90;;;;;;5075579;28;20214;-46
2021/05/20 01:00:14;;;;;;;9.17;7.10;;;7.70;99.90;;;;;;5079851;28;20190;-49
2021/05/20 01:02:41;;;;;;;7.60;6.90;;;7.70;99.90;;;;;;5084155;28;20698;-49
2021/05/20 01:05:10;;;;;;;7.93;6.90;;;7.60;99.90;;;;;;5069991;28;20237;-45
2021/05/20 01:07:36;;;;;;;8.90;7.10;;;7.50;99.90;;;;;;5080346;28;20209;-44
2021/05/20 01:10:04;;;;;;;7.20;6.50;;;7.50;99.90;;;;;;5080488;28;20280;-46
2021/05/20 01:12:31;;;;;;;8.37;7.00;;;7.50;99.90;;;;;;5073895;28;20663;-46
2021/05/20 01:14:58;;;;;;;6.97;6.30;;;7.40;99.90;;;;;;5076910;28;20221;-51
2021/05/20 01:17:25;;;;;;;10.03;6.30;;;7.50;99.90;;;;;;5086230;28;20251;-45
2021/05/20 01:19:52;;;;;;;7.30;6.57;;;7.60;99.90;;;;;;5071623;28;20554;-46
2021/05/20 01:22:19;;;;;;;7.80;6.33;;;7.60;99.90;;;;;;5079062;28;20210;-47
2021/05/20 01:24:46;;;;;;;7.53;6.80;;;7.60;99.90;;;;;;5083857;28;20259;-47
2021/05/20 01:27:13;;;;;;;7.00;6.30;;;7.60;99.90;;;;;;5075272;28;20213;-53
2021/05/20 01:29:41;;;;;;;6.90;6.30;;;7.60;99.90;;;;;;5075532;28;20571;-49
2021/05/20 01:32:08;;;;;;;12.73;6.93;;;7.60;99.90;;;;;;5083326;28;20208;-47
2021/05/20 01:34:35;;;;;;;7.23;6.53;;;7.70;99.90;;;;;;5075299;28;20685;-52
2021/05/20 01:37:02;;;;;;;6.93;6.23;;;7.70;99.90;;;;;;5061970;28;20885;-48
2021/05/20 01:39:29;;;;;;;7.23;6.00;;;7.80;99.90;;;;;;5083684;28;20218;-52
2021/05/20 01:41:55;;;;;;;6.57;5.83;;;7.80;99.90;;;;;;5073550;28;20779;-47
2021/05/20 01:44:22;;;;;;;6.30;5.70;;;7.80;99.90;;;;;;5080228;28;20259;-48
2021/05/20 01:46:49;;;;;;;6.33;5.73;;;7.90;99.90;;;;;;5083012;28;20236;-46
2021/05/20 01:49:15;;;;;;;6.97;5.17;;;7.90;99.90;;;;;;5083984;28;20189;-49
2021/05/20 01:51:42;;;;;;;5.60;5.10;;;7.90;99.90;;;;;;5080667;28;20188;-45
2021/05/20 01:54:08;;;;;;;6.67;6.07;;;8.00;99.90;;;;;;5070376;28;20209;-45
2021/05/20 01:56:36;;;;;;;6.80;4.87;;;8.00;99.90;;;;;;5085113;28;20224;-50
2021/05/20 01:59:03;;;;;;;5.07;4.60;;;8.00;99.90;;;;;;5071401;28;20217;-48
2021/05/20 02:01:29;;;;;;;6.30;5.27;;;8.10;99.90;;;;;;5080498;28;20202;-52
2021/05/20 02:03:55;;;;;;;5.70;5.10;;;8.10;99.90;;;;;;5081470;28;20744;-47
2021/05/20 02:06:21;;;;;;;5.50;5.00;;;8.20;99.90;;;;;;5085326;28;20259;-51
2021/05/20 02:08:47;;;;;;;5.20;4.70;;;8.10;99.90;;;;;;5058884;28;20202;-43
2021/05/20 02:11:13;;;;;;;5.63;5.13;;;8.10;99.90;;;;;;5077571;28;20190;-53
2021/05/20 02:13:41;;;;;;;5.77;5.27;;;8.10;99.90;;;;;;5068585;28;20210;-45
2021/05/20 02:16:07;;;;;;;5.70;5.07;;;8.10;99.90;;;;;;5076599;28;20222;-49
2021/05/20 02:18:34;;;;;;;5.33;4.83;;;8.00;99.90;;;;;;5085056;28;20217;-48
2021/05/20 02:21:00;;;;;;;5.60;5.20;;;8.00;99.90;;;;;;5080856;28;20198;-45
2021/05/20 02:23:26;;;;;;;5.37;4.90;;;8.00;99.90;;;;;;5072784;28;20213;-45
2021/05/20 02:25:53;;;;;;;5.43;5.03;;;7.90;99.90;;;;;;5076153;28;20237;-44
2021/05/20 02:28:19;;;;;;;6.17;5.60;;;7.90;99.90;;;;;;5083981;28;20198;-46
2021/05/20 02:30:46;;;;;;;5.40;4.90;;;7.90;99.90;;;;;;5066419;28;20205;-45
2021/05/20 02:33:13;;;;;;;5.90;4.90;;;7.90;99.90;;;;;;5080770;28;20193;-47
2021/05/20 02:35:40;;;;;;;5.87;5.30;;;7.90;99.90;;;;;;5084106;28;20205;-44
2021/05/20 02:38:06;;;;;;;5.87;5.37;;;7.90;99.90;;;;;;5068800;28;20229;-52
2021/05/20 02:40:33;;;;;;;6.03;5.43;;;7.90;99.90;;;;;;5078741;28;20198;-52
2021/05/20 02:42:59;;;;;;;6.07;5.53;;;7.90;99.90;;;;;;5080127;28;20182;-47
2021/05/20 02:45:25;;;;;;;6.10;5.50;;;7.90;99.90;;;;;;5073689;28;20229;-47
2021/05/20 02:47:53;;;;;;;5.93;5.43;;;7.90;99.90;;;;;;5074306;28;20194;-55
2021/05/20 02:50:21;;;;;;;7.67;5.30;;;7.90;99.90;;;;;;5083804;28;20553;-49
2021/05/20 02:52:48;;;;;;;5.50;5.00;;;8.00;99.90;;;;;;5073481;28;20194;-49
2021/05/20 02:55:15;;;;;;;6.00;5.43;;;8.00;99.90;;;;;;5073648;28;20936;-47
2021/05/20 02:57:44;;;;;;;6.10;5.40;;;8.00;99.90;;;;;;5082266;28;20208;-47
2021/05/20 03:00:12;;;;;;;5.60;5.10;;;8.00;99.90;;;;;;5073155;28;20488;-49
2021/05/20 03:02:38;;;;;;;6.60;6.00;;;8.10;99.90;;;;;;5074608;28;20201;-50
2021/05/20 03:05:06;;;;;;;5.57;5.03;;;8.00;99.90;;;;;;5081119;28;20210;-48
2021/05/20 03:07:33;;;;;;;6.03;5.17;;;8.00;99.90;;;;;;5084184;28;20190;-48
2021/05/20 03:09:59;;;;;;;5.70;5.20;;;8.10;99.90;;;;;;5060665;28;21017;-47
2021/05/20 03:12:25;;;;;;;7.10;5.57;;;8.10;99.90;;;;;;5083634;28;20194;-50
2021/05/20 03:14:51;;;;;;;7.87;6.07;;;8.10;99.90;;;;;;5070245;28;20213;-44
2021/05/20 03:17:18;;;;;;;5.47;4.90;;;8.10;99.90;;;;;;5077311;28;20198;-48
2021/05/20 03:19:44;;;;;;;6.17;5.07;;;8.10;99.90;;;;;;5081532;28;20867;-46
2021/05/20 03:22:11;;;;;;;6.10;5.47;;;8.20;99.90;;;;;;5081948;28;20189;-50
2021/05/20 03:24:37;;;;;;;5.47;5.00;;;8.20;99.90;;;;;;5069578;28;20218;-44
2021/05/20 03:27:03;;;;;;;5.30;4.90;;;8.10;99.90;;;;;;5074393;28;20405;-50
2021/05/20 03:29:29;;;;;;;5.13;4.60;;;8.10;99.90;;;;;;5081142;28;20190;-52
2021/05/20 03:31:55;;;;;;;5.77;5.13;;;8.10;99.90;;;;;;5060602;28;20961;-44
2021/05/20 03:34:21;;;;;;;5.80;5.20;;;8.10;99.90;;;;;;5083844;28;20668;-50
2021/05/20 03:36:47;;;;;;;8.07;5.40;;;8.10;99.90;;;;;;5080877;28;20205;-46
2021/05/20 03:39:14;;;;;;;6.23;5.63;;;8.10;99.90;;;;;;5069004;28;20222;-49
2021/05/20 03:41:41;;;;;;;6.27;5.67;;;8.10;99.90;;;;;;5081623;28;20202;-46
2021/05/20 03:44:07;;;;;;;6.20;5.33;;;8.10;99.90;;;;;;5075422;28;20214;-50
2021/05/20 03:46:33;;;;;;;6.90;5.13;;;8.20;99.90;;;;;;5077342;28;20283;-48
2021/05/20 03:49:00;;;;;;;6.07;5.50;;;8.20;99.90;;;;;;5073284;28;20190;-47
2021/05/20 03:51:26;;;;;;;6.43;5.77;;;8.20;99.90;;;;;;5082000;28;20238;-47
2021/05/20 03:53:52;;;;;;;5.57;5.07;;;8.20;99.90;;;;;;5074361;28;20206;-55
2021/05/20 03:56:19;;;;;;;5.97;5.47;;;8.20;99.90;;;;;;5069379;28;20753;-51
2021/05/20 03:58:46;;;;;;;5.37;4.87;;;8.20;99.90;;;;;;5074647;28;20218;-57
2021/05/20 04:01:12;;;;;;;11.07;6.90;;;8.20;99.90;;;;;;5075140;28;20182;-44
2021/05/20 04:03:38;;;;;;;6.10;5.47;;;8.20;99.90;;;;;;5070432;28;20208;-54
2021/05/20 04:06:05;;;;;;;8.07;5.73;;;8.20;99.90;;;;;;5079349;28;20227;-45
2021/05/20 04:08:34;;;;;;;6.20;5.70;;;8.30;99.90;;;;;;5078514;28;20210;-49
2021/05/20 04:11:00;;;;;;;7.70;6.27;;;8.20;99.90;;;;;;5065861;28;20405;-48
2021/05/20 04:13:28;;;;;;;6.97;5.57;;;8.20;99.90;;;;;;5076737;28;20570;-53
2021/05/20 04:15:55;;;;;;;6.50;5.90;;;8.30;99.90;;;;;;5078677;28;20226;-47
2021/05/20 04:18:21;;;;;;;6.63;5.93;;;8.30;99.90;;;;;;5064833;28;20721;-45
2021/05/20 04:20:47;;;;;;;8.73;6.00;;;8.30;99.90;;;;;;5079869;28;20407;-55
2021/05/20 04:23:14;;;;;;;6.43;5.83;;;8.30;99.90;;;;;;5075995;28;22208;-50
2021/05/20 04:25:40;;;;;;;8.27;7.10;;;8.30;99.90;;;;;;5065578;28;20585;-46
2021/05/20 04:28:06;;;;;;;6.00;5.40;;;8.40;99.90;;;;;;5067430;28;20434;-48
2021/05/20 04:30:33;;;;;;;7.57;6.77;;;8.40;99.90;;;;;;5071721;28;20224;-48
2021/05/20 04:32:59;;;;;;;7.27;6.57;;;8.50;99.90;;;;;;5071969;28;20239;-48
2021/05/20 04:35:26;;;;;;;7.37;6.63;;;8.50;99.90;;;;;;5076430;28;20226;-49
2021/05/20 04:37:52;;;;;;;9.00;7.37;;;8.60;99.90;;;;;;5078512;28;20240;-48
2021/05/20 04:40:18;;;;;;;7.60;6.70;;;8.60;99.90;;;;;;5076334;28;20202;-46
2021/05/20 04:42:44;;;;;;;9.20;7.17;;;8.70;99.90;;;;;;5060751;28;20740;-49
2021/05/20 04:45:11;;;;;;;7.70;7.00;;;8.80;99.90;;;;;;5075026;28;20282;-49
2021/05/20 04:47:38;;;;;;;10.53;7.60;;;8.80;99.90;;;;;;5075331;28;20221;-48
2021/05/20 04:50:05;;;;;;;8.50;7.53;;;8.90;99.90;;;;;;5073932;28;20255;-47
2021/05/20 04:52:32;;;;;;;12.43;7.33;;;8.90;99.90;;;;;;5081370;28;20200;-47
2021/05/20 04:54:58;;;;;;;9.63;8.40;;;9.00;99.90;;;;;;5063565;28;20211;-51
2021/05/20 04:57:24;;;;;;;10.03;7.47;;;9.00;99.90;;;;;;5065708;28;20575;-47
2021/05/20 04:59:50;;;;;;;11.20;8.30;;;9.00;99.90;;;;;;5071443;28;20214;-47
2021/05/20 05:02:16;;;;;;;8.20;7.40;;;9.10;99.90;;;;;;5075679;28;20674;-46
2021/05/20 05:04:43;;;;;;;8.83;7.90;;;9.10;99.90;;;;;;5072129;28;20702;-50
2021/05/20 05:07:09;;;;;;;9.50;7.73;;;9.10;99.90;;;;;;5076504;28;20228;-47
2021/05/20 05:09:35;;;;;;;10.00;8.37;;;9.20;99.90;;;;;;5081766;28;20198;-51
2021/05/20 05:12:01;;;;;;;8.70;7.90;;;9.20;99.90;;;;;;5061224;28;20599;-46
2021/05/20 05:14:27;;;;;;;8.00;7.03;;;9.20;99.90;;;;;;5081589;28;20205;-48
2021/05/20 05:16:54;;;;;;;11.17;7.50;;;9.30;99.90;;;;;;5072641;28;20243;-44
2021/05/20 05:19:20;;;;;;;11.17;8.23;;;9.30;99.90;;;;;;5074863;28;20214;-46
2021/05/20 05:21:47;;;;;;;10.63;8.00;;;9.30;99.90;;;;;;5074344;28;20201;-44
2021/05/20 05:24:13;;;;;;;9.00;8.07;;;9.30;99.90;;;;;;5080656;28;20952;-47
2021/05/20 05:26:39;;;;;;;12.97;8.53;;;9.30;99.90;;;;;;5076208;28;20267;-45
2021/05/20 05:29:06;;;;;;;10.50;8.27;;;9.30;99.90;;;;;;5053832;28;20206;-52
2021/05/20 05:31:33;;;;;;;9.93;8.60;;;9.30;99.90;;;;;;5081628;28;21003;-48
2021/05/20 05:33:59;;;;;;;9.83;7.73;;;9.30;99.90;;;;;;5065920;28;20967;-48
2021/05/20 05:36:26;;;;;;;10.43;8.57;;;9.40;99.90;;;;;;5074924;28;20230;-50
2021/05/20 05:38:53;;;;;;;9.90;8.70;;;9.50;99.90;;;;;;5072100;28;20217;-45
2021/05/20 05:41:19;;;;;;;10.77;8.50;;;9.50;99.90;;;;;;5080614;28;20691;-45
2021/05/20 05:43:45;;;;;;;8.87;8.07;;;9.60;99.90;;;;;;5049374;28;20198;-51
2021/05/20 05:46:12;;;;;;;12.00;9.93;;;9.70;99.90;;;;;;5079876;28;20251;-47
2021/05/20 05:48:38;;;;;;;11.73;9.13;;;9.70;99.90;;;;;;5067561;28;20214;-47
2021/05/20 05:51:08;;;;;;;12.13;9.77;;;9.70;99.90;;;;;;5081003;28;20197;-48
2021/05/20 05:53:35;;;;;;;11.77;9.37;;;9.80;99.90;;;;;;5076352;28;20915;-45
2021/05/20 05:56:02;;;;;;;9.77;8.77;;;9.80;99.90;;;;;;5078614;28;20209;-46
2021/05/20 05:58:28;;;;;;;12.17;9.47;;;9.80;99.90;;;;;;5062724;28;20224;-53
2021/05/20 06:00:55;;;;;;;12.87;10.53;;;9.90;99.90;;;;;;5080936;28;20241;-44
2021/05/20 06:03:22;;;;;;;13.47;10.07;;;9.90;99.90;;;;;;5066370;28;20205;-54
2021/05/20 06:05:49;;;;;;;14.80;10.67;;;10.00;99.90;;;;;;5081060;28;20214;-48
2021/05/20 06:08:16;;;;;;;13.80;10.13;;;10.10;99.90;;;;;;5074307;28;20199;-54
2021/05/20 06:10:42;;;;;;;14.17;10.30;;;10.10;99.90;;;;;;5080090;28;20208;-44
2021/05/20 06:13:09;;;;;;;13.30;10.33;;;10.20;99.90;;;;;;5081416;28;20285;-56
2021/05/20 06:15:36;;;;;;;13.03;10.57;;;10.30;99.90;;;;;;5064597;28;20225;-47
2021/05/20 06:18:02;;;;;;;18.97;9.83;;;10.30;99.90;;;;;;5079076;28;20213;-47
2021/05/20 06:20:28;;;;;;;16.50;10.27;;;10.40;99.90;;;;;;5072598;28;20361;-50
2021/05/20 06:22:54;;;;;;;17.43;11.27;;;10.40;99.90;;;;;;5075908;28;20209;-44
2021/05/20 06:25:21;;;;;;;11.07;9.87;;;10.50;99.90;;;;;;5074275;28;20253;-53
2021/05/20 06:27:47;;;;;;;12.77;8.33;;;10.60;99.90;;;;;;5078760;28;20284;-47
2021/05/20 06:30:15;;;;;;;12.30;9.23;;;10.60;99.90;;;;;;5069388;28;20202;-49
2021/05/20 06:32:42;;;;;;;12.83;9.50;;;10.60;99.90;;;;;;5078563;28;20186;-48
2021/05/20 06:35:08;;;;;;;10.33;9.27;;;10.60;99.90;;;;;;5070278;28;20304;-46
2021/05/20 06:37:35;;;;;;;10.17;9.13;;;10.70;99.90;;;;;;5075508;28;20206;-44
2021/05/20 06:40:01;;;;;;;10.70;9.40;;;10.80;99.90;;;;;;5083228;28;20218;-45
2021/05/20 06:42:28;;;;;;;11.73;9.53;;;10.90;99.90;;;;;;5079763;28;20205;-53
2021/05/20 06:44:54;;;;;;;10.20;8.70;;;11.00;99.90;;;;;;5073792;28;20229;-51
2021/05/20 06:47:21;;;;;;;12.47;8.17;;;11.00;99.90;;;;;;5060633;28;20202;-47
2021/05/20 06:49:47;;;;;;;11.93;9.13;;;11.00;99.90;;;;;;5075314;28;20221;-48
2021/05/20 06:52:13;;;;;;;9.37;7.27;;;11.10;99.90;;;;;;5072874;28;20205;-53
2021/05/20 06:54:39;;;;;;;9.57;7.97;;;11.10;99.90;;;;;;5077373;28;20222;-45
2021/05/20 06:57:08;;;;;;;9.70;7.60;;;11.20;99.90;;;;;;5079747;28;20198;-47
2021/05/20 07:02:20;;;;;;;8.30;6.80;;;11.30;99.90;;;;;;5066383;28;20228;-49
2021/05/20 07:04:46;;;;;;;7.47;6.67;;;11.40;99.90;;;;;;5076830;28;20218;-52
2021/05/20 07:07:13;;;;;;;9.63;6.20;;;11.40;99.90;;;;;;5070728;28;20194;-45
2021/05/20 07:09:40;;;;;;;6.63;6.03;;;11.40;99.90;;;;;;5077519;28;20226;-45
2021/05/20 07:12:07;;;;;;;6.83;6.23;;;11.40;99.90;;;;;;5080352;28;20201;-45
2021/05/20 07:14:33;;;;;;;7.00;6.30;;;11.30;99.90;;;;;;5077379;28;20199;-47
2021/05/20 07:17:00;;;;;;;7.47;6.43;;;11.30;99.90;;;;;;5071899;28;20209;-51
2021/05/20 07:19:27;;;;;;;7.33;6.50;;;11.20;99.90;;;;;;5078117;28;20758;-48
2021/05/20 07:21:53;;;;;;;7.83;6.40;;;11.20;99.90;;;;;;5067779;28;20947;-49
2021/05/20 07:24:20;;;;;;;7.20;6.47;;;11.10;99.90;;;;;;5073882;28;20198;-47
2021/05/20 07:26:46;;;;;;;8.37;6.70;;;11.10;99.90;;;;;;5082769;28;20194;-51
2021/05/20 07:29:12;;;;;;;7.37;6.20;;;11.10;99.90;;;;;;5078716;28;20182;-52
2021/05/20 07:31:39;;;;;;;15.40;9.37;;;11.20;99.90;;;;;;5082919;28;20190;-48
2021/05/20 07:34:05;;;;;;;8.23;6.20;;;11.20;99.90;;;;;;5068390;28;20214;-55
2021/05/20 07:36:32;;;;;;;6.90;5.97;;;11.40;99.90;;;;;;5075806;28;20213;-48
2021/05/20 07:38:59;;;;;;;6.00;5.50;;;11.50;99.90;;;;;;5071484;28;20233;-53
2021/05/20 07:41:27;;;;;;;6.70;5.67;;;11.60;99.90;;;;;;5075285;28;20212;-47
2021/05/20 07:43:53;;;;;;;7.93;5.70;;;11.80;99.90;;;;;;5081994;28;20186;-45
2021/05/20 07:46:20;;;;;;;6.30;5.70;;;12.00;99.90;;;;;;5078412;28;20970;-46
2021/05/20 07:48:46;;;;;;;6.03;5.40;;;12.10;99.90;;;;;;5064862;28;20248;-48
2021/05/20 07:51:12;;;;;;;7.20;5.47;;;12.20;99.90;;;;;;5074845;28;20190;-50
2021/05/20 07:53:39;;;;;;;4.87;4.37;;;12.30;99.90;;;;;;5073471;28;20206;-47
2021/05/20 07:56:06;;;;;;;3.67;3.37;;;12.40;99.90;;;;;;5073361;28;20218;-45
2021/05/20 07:58:32;;;;;;;3.30;3.00;;;12.40;99.90;;;;;;5078345;28;20209;-48
2021/05/20 08:01:01;;;;;;;3.83;3.33;;;12.40;99.90;;;;;;5080445;28;20198;-52
2021/05/20 08:03:29;;;;;;;4.63;3.67;;;12.40;99.90;;;;;;5079759;28;20182;-46
2021/05/20 08:06:02;;;;;;;4.00;3.63;;;12.30;99.90;;;;;;5069142;28;20721;-48
2021/05/20 08:08:35;;;;;;;4.93;3.93;;;12.30;99.90;;;;;;5077663;28;20300;-51
2021/05/20 08:11:03;;;;;;;3.60;3.40;;;12.30;99.90;;;;;;5071859;28;20209;-53
2021/05/20 08:13:30;;;;;;;3.93;3.63;;;12.50;99.90;;;;;;5081433;28;20306;-48
2021/05/20 08:15:57;;;;;;;3.63;3.40;;;12.50;99.90;;;;;;5082450;28;20221;-56
2021/05/20 08:18:23;;;;;;;5.73;3.93;;;12.70;99.90;;;;;;5078076;28;20379;-51
2021/05/20 08:20:49;;;;;;;4.70;3.77;;;12.80;99.90;;;;;;5066648;28;20209;-51
2021/05/20 08:23:16;;;;;;;4.00;3.70;;;12.70;99.90;;;;;;5073115;28;20213;-51
2021/05/20 08:25:42;;;;;;;6.13;4.00;;;12.60;99.90;;;;;;5073806;28;20217;-56
2021/05/20 08:28:10;;;;;;;5.47;4.07;;;12.60;99.90;;;;;;5074057;28;20205;-55
2021/05/20 08:30:37;;;;;;;4.30;3.87;;;12.60;99.90;;;;;;5072675;28;21035;-57
2021/05/20 08:33:03;;;;;;;6.87;4.00;;;12.70;99.90;;;;;;5078088;28;20198;-58
2021/05/20 08:35:29;;;;;;;4.07;3.63;;;12.80;99.90;;;;;;5068468;28;20236;-57
2021/05/20 08:37:56;;;;;;;5.30;3.27;;;12.80;99.90;;;;;;5064469;28;20229;-57
2021/05/20 08:40:22;;;;;;;3.70;2.90;;;12.80;99.90;;;;;;5071042;28;20218;-56
2021/05/20 08:42:48;;;;;;;5.57;3.70;;;12.70;99.90;;;;;;5058989;28;20414;-52
2021/05/20 08:45:18;;;;;;;3.77;3.43;;;12.80;99.90;;;;;;5071663;28;20222;-57
2021/05/20 08:47:45;;;;;;;6.00;3.33;;;13.20;99.90;;;;;;5072904;28;20213;-57
2021/05/20 08:50:14;;;;;;;4.13;3.20;;;13.40;99.90;;;;;;5074918;28;20198;-50
2021/05/20 08:52:42;;;;;;;3.53;3.23;;;13.50;99.90;;;;;;5073414;28;20263;-55
2021/05/20 08:55:10;;;;;;;3.30;3.00;;;13.60;99.90;;;;;;5075606;28;20626;-52
2021/05/20 08:57:36;;;;;;;3.40;2.93;;;13.50;99.90;;;;;;5070561;28;20991;-53
2021/05/20 09:00:04;;;;;;;7.57;2.90;;;13.60;99.90;;;;;;5072708;28;20225;-53
2021/05/20 09:02:31;;;;;;;3.47;2.67;;;13.70;99.90;;;;;;5072615;28;20943;-49
2021/05/20 09:05:06;;;;;;;4.23;2.80;;;13.60;99.90;;;;;;5081045;28;20218;-52
2021/05/20 09:07:35;;;;;;;3.60;3.07;;;13.60;99.90;;;;;;5065038;28;20236;-51
2021/05/20 09:10:12;;;;;;;7.57;2.43;;;13.50;99.90;;;;;;5075449;28;20197;-48
2021/05/20 09:12:39;;;;;;;5.43;2.97;;;13.50;99.90;;;;;;5072932;28;20251;-48
2021/05/20 09:15:14;;;;;;;3.03;2.70;;;13.40;99.90;;;;;;5073123;28;20222;-51
2021/05/20 09:17:41;;;;;;;5.50;3.50;;;13.50;99.90;;;;;;5079712;28;20193;-48
2021/05/20 09:20:09;;;;;;;3.30;3.00;;;13.50;99.90;;;;;;5078850;28;20698;-55
2021/05/20 09:22:36;;;;;;;3.57;3.27;;;13.40;99.90;;;;;;5076889;28;20783;-50
2021/05/20 09:25:04;;;;;;;5.37;3.80;;;13.40;99.90;;;;;;5085109;28;20217;-54
2021/05/20 09:27:34;;;;;;;3.93;3.53;;;13.50;99.90;;;;;;5088227;28;20189;-52
2021/05/20 09:30:12;;;;;;;3.73;3.17;;;13.60;99.90;;;;;;5083880;28;20256;-52
2021/05/20 09:32:39;;;;;;;10.60;3.83;;;13.80;99.90;;;;;;5084475;28;20213;-54
2021/05/20 09:35:07;;;;;;;5.80;3.70;;;14.00;99.90;;;;;;5083198;28;20213;-55
2021/05/20 09:37:45;;;;;;;4.50;3.13;;;14.00;99.90;;;;;;5065821;28;20484;-52
2021/05/20 09:40:12;;;;;;;5.63;3.40;;;14.00;99.90;;;;;;5082891;28;20226;-56
2021/05/20 09:42:38;;;;;;;3.23;2.93;;;14.00;99.90;;;;;;5071123;28;20206;-53
2021/05/20 09:45:06;;;;;;;4.60;3.40;;;13.90;99.90;;;;;;5073784;28;20287;-54
2021/05/20 09:47:32;;;;;;;3.30;2.97;;;13.80;99.90;;;;;;5071347;28;20202;-54
2021/05/20 09:50:00;;;;;;;5.53;3.10;;;13.80;99.90;;;;;;5084065;28;20194;-54
2021/05/20 09:52:27;;;;;;;5.27;3.20;;;13.80;99.90;;;;;;5067879;28;21749;-53
2021/05/20 09:54:53;;;;;;;3.37;3.03;;;13.80;99.90;;;;;;5083938;28;20699;-50
2021/05/20 09:57:28;;;;;;;3.30;3.07;;;13.70;99.90;;;;;;5070525;28;20633;-49
2021/05/20 10:00:04;;;;;;;3.43;3.03;;;13.60;99.90;;;;;;5075662;28;20215;-51
2021/05/20 10:02:31;;;;;;;2.57;2.37;;;13.40;99.90;;;;;;5071555;28;20198;-54
2021/05/20 10:04:58;;;;;;;3.10;2.77;;;13.30;99.90;;;;;;5082962;28;20209;-47
2021/05/20 10:07:32;;;;;;;4.30;3.90;;;13.30;99.90;;;;;;5080566;28;20223;-46
2021/05/20 10:09:59;;;;;;;5.73;3.93;;;13.30;99.90;;;;;;5065235;28;20232;-50
2021/05/20 10:12:26;;;;;;;4.73;4.30;;;13.50;99.90;;;;;;5075616;28;21123;-50
2021/05/20 10:14:53;;;;;;;4.93;4.40;;;13.60;99.90;;;;;;5074111;28;20218;-47
2021/05/20 10:17:20;;;;;;;5.00;4.43;;;13.80;99.90;;;;;;5073178;28;20202;-50
2021/05/20 10:19:46;;;;;;;4.17;3.87;;;13.90;99.90;;;;;;5081847;28;20585;-47
2021/05/20 10:22:14;;;;;;;5.03;4.57;;;14.00;99.90;;;;;;5080585;28;20224;-50
2021/05/20 10:24:42;;;;;;;4.73;4.40;;;14.30;99.90;;;;;;5070152;28;20202;-52
2021/05/20 10:27:10;;;;;;;5.70;4.50;;;14.40;99.90;;;;;;5081654;28;20250;-48
2021/05/20 10:29:37;;;;;;;4.10;3.40;;;14.60;99.90;;;;;;5079739;28;20256;-46
2021/05/20 10:32:05;;;;;;;3.30;3.00;;;14.60;99.90;;;;;;5076605;28;20248;-50
2021/05/20 10:34:31;;;;;;;3.50;3.20;;;14.70;99.90;;;;;;5087591;28;20190;-48
2021/05/20 10:36:58;;;;;;;2.50;2.30;;;14.70;99.90;;;;;;5076334;28;20687;-45
2021/05/20 10:39:25;;;;;;;2.30;2.20;;;14.80;99.90;;;;;;5071769;28;20233;-48
2021/05/20 10:41:52;;;;;;;2.87;2.67;;;14.80;99.90;;;;;;5081135;28;20226;-44
2021/05/20 10:44:19;;;;;;;4.53;2.77;;;14.80;99.90;;;;;;5075155;28;20198;-51
2021/05/20 10:47:03;;;;;;;3.20;2.40;;;14.80;99.90;;;;;;5068868;28;20225;-46
2021/05/20 10:49:59;;;;;;;6.57;2.83;;;14.90;99.90;;;;;;5080325;28;20410;-48
2021/05/20 10:52:42;;;;;;;3.30;3.00;;;15.00;99.90;;;;;;5070557;28;20344;-48
2021/05/20 10:55:09;;;;;;;4.30;3.10;;;15.00;99.90;;;;;;5068090;28;20234;-45
2021/05/20 10:57:58;;;;;;;4.57;2.90;;;15.10;99.90;;;;;;5081377;28;20186;-47
2021/05/20 11:00:41;;;;;;;3.13;2.80;;;15.20;99.90;;;;;;5057286;28;20703;-50
2021/05/20 11:03:08;;;;;;;3.63;3.00;;;15.30;99.90;;;;;;5068540;28;20551;-49
2021/05/20 11:05:56;;;;;;;3.87;3.50;;;15.40;99.90;;;;;;5083556;28;20759;-46
2021/05/20 11:09:02;;;;;;;3.50;3.20;;;15.40;99.90;;;;;;5075624;28;20202;-46
2021/05/20 11:11:47;;;;;;;3.33;2.80;;;15.20;99.90;;;;;;5062849;28;20292;-46
2021/05/20 11:14:51;;;;;;;2.30;2.10;;;15.10;99.90;;;;;;5070103;28;20248;-50
2021/05/20 11:17:31;;;;;;;1.50;1.40;;;14.80;99.90;;;;;;5054008;28;20213;-49
2021/05/20 11:20:40;;;;;;;4.20;1.70;;;14.40;99.90;;;;;;5065580;28;20274;-45
2021/05/20 11:23:25;;;;;;;1.70;1.60;;;14.20;99.90;;;;;;5079206;28;20198;-49
2021/05/20 11:26:10;;;;;;;1.43;1.33;;;14.10;99.90;;;;;;5077109;28;20315;-48
2021/05/20 11:28:44;;;;;;;1.63;1.30;;;14.00;99.90;;;;;;5078674;28;20198;-48
2021/05/20 11:31:12;;;;;;;2.60;1.43;;;14.10;99.90;;;;;;5078872;28;20206;-45
2021/05/20 11:33:48;;;;;;;1.20;1.20;;;14.10;99.90;;;;;;5072778;28;20205;-50
2021/05/20 11:36:14;;;;;;;1.50;1.40;;;14.10;99.90;;;;;;5062980;28;20217;-50
2021/05/20 11:38:55;;;;;;;1.63;1.53;;;14.20;99.90;;;;;;5067584;28;20221;-48
2021/05/20 11:41:21;;;;;;;3.53;2.70;;;14.30;99.90;;;;;;5067038;28;20826;-45
2021/05/20 11:43:59;;;;;;;4.70;2.37;;;14.60;99.90;;;;;;5068424;28;20702;-50
2021/05/20 11:46:26;;;;;;;4.60;2.30;;;14.80;99.90;;;;;;5059477;28;20218;-49
2021/05/20 11:49:00;;;;;;;2.77;2.57;;;15.10;99.90;;;;;;5075510;28;20280;-48
2021/05/20 11:51:40;;;;;;;3.43;2.27;;;15.10;99.90;;;;;;5070763;28;20318;-47
2021/05/20 11:54:10;;;;;;;2.70;2.50;;;15.30;99.90;;;;;;5080300;28;20197;-47
2021/05/20 11:56:38;;;;;;;2.67;2.47;;;15.30;99.90;;;;;;5080928;28;20218;-49
2021/05/20 11:59:04;;;;;;;3.00;2.50;;;15.30;99.90;;;;;;5069718;28;20272;-50
2021/05/20 12:01:32;;;;;;;2.73;2.53;;;15.30;99.90;;;;;;5065398;28;20207;-47
2021/05/20 12:04:03;;;;;;;3.83;2.43;;;15.40;99.90;;;;;;5080103;28;20255;-46
2021/05/20 12:06:29;;;;;;;3.10;2.73;;;15.40;99.90;;;;;;5071458;28;20308;-45
2021/05/20 12:09:13;;;;;;;3.57;2.90;;;15.60;99.90;;;;;;5080598;28;20182;-48
2021/05/20 12:11:41;;;;;;;2.70;2.47;;;15.90;99.90;;;;;;5078774;28;20299;-50
2021/05/20 12:14:38;;;;;;;2.70;2.50;;;16.00;99.90;;;;;;5066886;28;20255;-48
2021/05/20 12:17:10;;;;;;;2.50;2.30;;;15.90;99.90;;;;;;5013551;28;20211;-54
2021/05/20 12:19:39;;;;;;;3.73;2.97;;;15.50;99.90;;;;;;5062879;28;20532;-47
2021/05/20 12:22:08;;;;;;;4.33;2.40;;;15.20;99.90;;;;;;5073757;28;20205;-49
2021/05/20 12:24:36;;;;;;;5.37;2.63;;;15.10;99.90;;;;;;5078860;28;20255;-50
2021/05/20 12:27:22;;;;;;;2.70;2.50;;;14.90;99.90;;;;;;5077043;28;20214;-55
2021/05/20 12:29:50;;;;;;;2.37;2.10;;;14.90;99.90;;;;;;5066530;28;20201;-52
2021/05/20 12:32:39;;;;;;;3.30;2.20;;;14.70;99.90;;;;;;5073261;28;20198;-51
2021/05/20 12:35:29;;;;;;;3.27;2.53;;;14.10;99.90;;;;;;5066108;28;20240;-50
2021/05/20 12:38:02;;;;;;;5.87;2.80;;;13.20;99.90;;;;;;5074018;28;20236;-47
2021/05/20 12:40:30;;;;;;;2.73;2.00;;;12.40;99.90;;;;;;5073284;28;20794;-47
2021/05/20 12:43:20;;;;;;;4.83;2.40;;;11.80;99.90;;;;;;5081146;28;20322;-47
2021/05/20 12:45:51;;;;;;;2.47;1.60;;;11.60;99.90;;;;;;5069559;28;20265;-47
2021/05/20 12:48:20;;;;;;;1.63;1.50;;;11.30;99.90;;;;;;5068265;28;20556;-47
2021/05/20 12:50:46;;;;;;;2.03;1.80;;;11.10;99.90;;;;;;5077410;28;20239;-47
2021/05/20 12:53:12;;;;;;;1.70;1.50;;;11.10;99.90;;;;;;5069913;28;20194;-46
2021/05/20 12:55:40;;;;;;;2.57;1.53;;;11.10;99.90;;;;;;5078866;28;20218;-51
2021/05/20 12:58:08;;;;;;;1.90;1.80;;;11.10;99.90;;;;;;5076546;28;20851;-51
2021/05/20 13:00:56;;;;;;;2.20;1.97;;;11.10;99.90;;;;;;5071463;28;21003;-49